sensor_id;sensor_type;location;lat;lon;timestamp;P1;durP1;ratioP1;P2;durP2;ratioP2
15354;SDS011;7777;52.254;9.618;2023-11-19T00:00:24;1.23;;;0.87;;
15354;SDS011;7777;52.254;9.618;2023-11-19T00:02:51;0.80;;;0.80;;
15354;SDS011;7777;52.254;9.618;2023-11-19T00:05:16;2.70;;;1.00;;
15354;SDS011;7777;52.254;9.618;2023-11-19T00:07:42;2.27;;;1.10;;
15354;SDS011;7777;52.254;9.618;2023-11-19T00:10:12;0.87;;;0.77;;
15354;SDS011;7777;52.254;9.618;2023-11-19T00:12:45;2.00;;;1.17;;
15354;SDS011;7777;52.254;9.618;2023-11-19T00:15:12;0.50;;;0.50;;
15354;SDS011;7777;52.254;9.618;2023-11-19T00:17:42;0.50;;;0.50;;
15354;SDS011;7777;52.254;9.618;2023-11-19T00:20:11;2.10;;;0.80;;
15354;SDS011;7777;52.254;9.618;2023-11-19T00:22:37;0.70;;;0.60;;
15354;SDS011;7777;52.254;9.618;2023-11-19T00:25:05;2.27;;;0.77;;
15354;SDS011;7777;52.254;9.618;2023-11-19T00:27:31;1.20;;;0.80;;
15354;SDS011;7777;52.254;9.618;2023-11-19T00:29:57;0.80;;;0.80;;
15354;SDS011;7777;52.254;9.618;2023-11-19T00:32:23;1.90;;;0.90;;
15354;SDS011;7777;52.254;9.618;2023-11-19T00:34:49;1.57;;;0.90;;
15354;SDS011;7777;52.254;9.618;2023-11-19T00:37:15;1.10;;;0.90;;
15354;SDS011;7777;52.254;9.618;2023-11-19T00:39:41;0.87;;;0.70;;
15354;SDS011;7777;52.254;9.618;2023-11-19T00:42:08;1.00;;;0.80;;
15354;SDS011;7777;52.254;9.618;2023-11-19T00:44:35;0.60;;;0.60;;
15354;SDS011;7777;52.254;9.618;2023-11-19T00:47:01;0.80;;;0.70;;
15354;SDS011;7777;52.254;9.618;2023-11-19T00:49:28;1.77;;;0.90;;
15354;SDS011;7777;52.254;9.618;2023-11-19T00:51:54;1.67;;;0.97;;
15354;SDS011;7777;52.254;9.618;2023-11-19T00:54:21;1.10;;;1.00;;
15354;SDS011;7777;52.254;9.618;2023-11-19T00:56:50;1.63;;;0.90;;
15354;SDS011;7777;52.254;9.618;2023-11-19T00:59:17;1.83;;;0.80;;
15354;SDS011;7777;52.254;9.618;2023-11-19T01:01:43;2.40;;;0.90;;
15354;SDS011;7777;52.254;9.618;2023-11-19T01:04:09;1.07;;;0.80;;
15354;SDS011;7777;52.254;9.618;2023-11-19T01:06:35;1.90;;;0.83;;
15354;SDS011;7777;52.254;9.618;2023-11-19T01:09:01;1.20;;;0.90;;
15354;SDS011;7777;52.254;9.618;2023-11-19T01:11:27;0.80;;;0.73;;
15354;SDS011;7777;52.254;9.618;2023-11-19T01:13:53;0.87;;;0.80;;
15354;SDS011;7777;52.254;9.618;2023-11-19T01:16:19;3.83;;;0.90;;
15354;SDS011;7777;52.254;9.618;2023-11-19T01:18:49;1.20;;;1.07;;
15354;SDS011;7777;52.254;9.618;2023-11-19T01:21:15;1.00;;;0.80;;
15354;SDS011;7777;52.254;9.618;2023-11-19T01:23:41;0.80;;;0.80;;
15354;SDS011;7777;52.254;9.618;2023-11-19T01:26:11;3.17;;;1.00;;
15354;SDS011;7777;52.254;9.618;2023-11-19T01:28:38;1.03;;;0.93;;
15354;SDS011;7777;52.254;9.618;2023-11-19T01:31:05;1.23;;;0.70;;
15354;SDS011;7777;52.254;9.618;2023-11-19T01:33:35;0.60;;;0.60;;
15354;SDS011;7777;52.254;9.618;2023-11-19T01:36:01;0.57;;;0.57;;
15354;SDS011;7777;52.254;9.618;2023-11-19T01:38:29;0.50;;;0.50;;
15354;SDS011;7777;52.254;9.618;2023-11-19T01:40:56;0.97;;;0.87;;
15354;SDS011;7777;52.254;9.618;2023-11-19T01:43:35;3.03;;;0.70;;
15354;SDS011;7777;52.254;9.618;2023-11-19T01:46:06;0.50;;;0.50;;
15354;SDS011;7777;52.254;9.618;2023-11-19T01:48:35;1.63;;;0.80;;
15354;SDS011;7777;52.254;9.618;2023-11-19T01:51:05;0.80;;;0.60;;
15354;SDS011;7777;52.254;9.618;2023-11-19T01:53:33;0.40;;;0.40;;
15354;SDS011;7777;52.254;9.618;2023-11-19T01:56:04;0.40;;;0.40;;
15354;SDS011;7777;52.254;9.618;2023-11-19T01:58:34;0.87;;;0.60;;
15354;SDS011;7777;52.254;9.618;2023-11-19T02:01:01;0.70;;;0.70;;
15354;SDS011;7777;52.254;9.618;2023-11-19T02:03:29;1.53;;;0.60;;
15354;SDS011;7777;52.254;9.618;2023-11-19T02:05:57;2.10;;;0.70;;
15354;SDS011;7777;52.254;9.618;2023-11-19T02:08:27;2.90;;;0.70;;
15354;SDS011;7777;52.254;9.618;2023-11-19T02:10:53;0.70;;;0.53;;
15354;SDS011;7777;52.254;9.618;2023-11-19T02:13:22;0.30;;;0.30;;
15354;SDS011;7777;52.254;9.618;2023-11-19T02:15:53;0.60;;;0.50;;
15354;SDS011;7777;52.254;9.618;2023-11-19T02:18:23;1.07;;;0.50;;
15354;SDS011;7777;52.254;9.618;2023-11-19T02:20:53;0.97;;;0.40;;
15354;SDS011;7777;52.254;9.618;2023-11-19T02:23:20;0.43;;;0.43;;
15354;SDS011;7777;52.254;9.618;2023-11-19T02:25:54;1.97;;;0.63;;
15354;SDS011;7777;52.254;9.618;2023-11-19T02:28:30;0.50;;;0.40;;
15354;SDS011;7777;52.254;9.618;2023-11-19T02:30:59;0.60;;;0.60;;
15354;SDS011;7777;52.254;9.618;2023-11-19T02:33:26;1.97;;;0.70;;
15354;SDS011;7777;52.254;9.618;2023-11-19T02:35:51;0.67;;;0.67;;
15354;SDS011;7777;52.254;9.618;2023-11-19T02:38:17;0.43;;;0.40;;
15354;SDS011;7777;52.254;9.618;2023-11-19T02:40:44;2.27;;;0.50;;
15354;SDS011;7777;52.254;9.618;2023-11-19T02:43:09;1.47;;;0.60;;
15354;SDS011;7777;52.254;9.618;2023-11-19T02:45:36;0.50;;;0.50;;
15354;SDS011;7777;52.254;9.618;2023-11-19T02:48:02;0.60;;;0.60;;
15354;SDS011;7777;52.254;9.618;2023-11-19T02:50:34;4.00;;;0.90;;
15354;SDS011;7777;52.254;9.618;2023-11-19T02:53:01;0.50;;;0.50;;
15354;SDS011;7777;52.254;9.618;2023-11-19T02:55:27;2.73;;;0.80;;
15354;SDS011;7777;52.254;9.618;2023-11-19T02:57:55;1.03;;;0.80;;
15354;SDS011;7777;52.254;9.618;2023-11-19T03:00:24;0.40;;;0.40;;
15354;SDS011;7777;52.254;9.618;2023-11-19T03:02:57;1.03;;;0.60;;
15354;SDS011;7777;52.254;9.618;2023-11-19T03:05:30;0.90;;;0.63;;
15354;SDS011;7777;52.254;9.618;2023-11-19T03:07:56;0.70;;;0.70;;
15354;SDS011;7777;52.254;9.618;2023-11-19T03:10:22;2.60;;;0.80;;
15354;SDS011;7777;52.254;9.618;2023-11-19T03:12:48;1.30;;;0.50;;
15354;SDS011;7777;52.254;9.618;2023-11-19T03:15:14;5.67;;;0.50;;
15354;SDS011;7777;52.254;9.618;2023-11-19T03:17:41;0.80;;;0.60;;
15354;SDS011;7777;52.254;9.618;2023-11-19T03:20:10;1.67;;;0.90;;
15354;SDS011;7777;52.254;9.618;2023-11-19T03:22:40;0.90;;;0.73;;
15354;SDS011;7777;52.254;9.618;2023-11-19T03:25:07;1.13;;;0.80;;
15354;SDS011;7777;52.254;9.618;2023-11-19T03:27:37;0.80;;;0.77;;
15354;SDS011;7777;52.254;9.618;2023-11-19T03:30:09;0.70;;;0.70;;
15354;SDS011;7777;52.254;9.618;2023-11-19T03:32:36;1.10;;;0.67;;
15354;SDS011;7777;52.254;9.618;2023-11-19T03:35:03;1.37;;;0.63;;
15354;SDS011;7777;52.254;9.618;2023-11-19T03:37:32;0.90;;;0.70;;
15354;SDS011;7777;52.254;9.618;2023-11-19T03:39:58;1.77;;;1.00;;
15354;SDS011;7777;52.254;9.618;2023-11-19T03:42:27;1.23;;;1.00;;
15354;SDS011;7777;52.254;9.618;2023-11-19T03:44:55;0.80;;;0.80;;
15354;SDS011;7777;52.254;9.618;2023-11-19T03:47:21;1.00;;;0.90;;
15354;SDS011;7777;52.254;9.618;2023-11-19T03:49:48;0.80;;;0.80;;
15354;SDS011;7777;52.254;9.618;2023-11-19T03:52:14;4.43;;;1.10;;
15354;SDS011;7777;52.254;9.618;2023-11-19T03:54:41;1.30;;;1.00;;
15354;SDS011;7777;52.254;9.618;2023-11-19T03:57:08;1.23;;;1.13;;
15354;SDS011;7777;52.254;9.618;2023-11-19T03:59:35;1.40;;;1.23;;
15354;SDS011;7777;52.254;9.618;2023-11-19T04:02:01;1.30;;;1.00;;
15354;SDS011;7777;52.254;9.618;2023-11-19T04:04:27;2.47;;;1.67;;
15354;SDS011;7777;52.254;9.618;2023-11-19T04:06:56;1.63;;;1.23;;
15354;SDS011;7777;52.254;9.618;2023-11-19T04:09:22;4.60;;;1.20;;
15354;SDS011;7777;52.254;9.618;2023-11-19T04:11:49;2.60;;;1.30;;
15354;SDS011;7777;52.254;9.618;2023-11-19T04:14:14;5.57;;;1.50;;
15354;SDS011;7777;52.254;9.618;2023-11-19T04:16:43;1.80;;;1.60;;
15354;SDS011;7777;52.254;9.618;2023-11-19T04:19:11;1.93;;;1.60;;
15354;SDS011;7777;52.254;9.618;2023-11-19T04:21:39;1.93;;;1.57;;
15354;SDS011;7777;52.254;9.618;2023-11-19T04:24:07;3.47;;;1.47;;
15354;SDS011;7777;52.254;9.618;2023-11-19T04:26:42;5.07;;;1.73;;
15354;SDS011;7777;52.254;9.618;2023-11-19T04:29:14;2.90;;;1.70;;
15354;SDS011;7777;52.254;9.618;2023-11-19T04:31:44;4.60;;;1.80;;
15354;SDS011;7777;52.254;9.618;2023-11-19T04:34:10;2.97;;;1.80;;
15354;SDS011;7777;52.254;9.618;2023-11-19T04:36:37;2.60;;;2.00;;
15354;SDS011;7777;52.254;9.618;2023-11-19T04:39:03;3.60;;;2.23;;
15354;SDS011;7777;52.254;9.618;2023-11-19T04:41:34;5.13;;;2.87;;
15354;SDS011;7777;52.254;9.618;2023-11-19T04:44:01;7.07;;;3.00;;
15354;SDS011;7777;52.254;9.618;2023-11-19T04:46:27;7.63;;;3.20;;
15354;SDS011;7777;52.254;9.618;2023-11-19T04:48:52;7.37;;;3.40;;
15354;SDS011;7777;52.254;9.618;2023-11-19T04:51:18;5.13;;;3.23;;
15354;SDS011;7777;52.254;9.618;2023-11-19T04:53:44;6.67;;;4.23;;
15354;SDS011;7777;52.254;9.618;2023-11-19T04:56:10;11.67;;;4.53;;
15354;SDS011;7777;52.254;9.618;2023-11-19T04:58:37;8.10;;;4.80;;
15354;SDS011;7777;52.254;9.618;2023-11-19T05:01:05;9.13;;;4.53;;
15354;SDS011;7777;52.254;9.618;2023-11-19T05:03:31;10.87;;;4.80;;
15354;SDS011;7777;52.254;9.618;2023-11-19T05:05:58;7.20;;;4.60;;
15354;SDS011;7777;52.254;9.618;2023-11-19T05:08:24;9.50;;;4.57;;
15354;SDS011;7777;52.254;9.618;2023-11-19T05:10:50;11.63;;;4.77;;
15354;SDS011;7777;52.254;9.618;2023-11-19T05:13:16;8.67;;;4.20;;
15354;SDS011;7777;52.254;9.618;2023-11-19T05:15:42;8.27;;;4.40;;
15354;SDS011;7777;52.254;9.618;2023-11-19T05:18:08;9.07;;;4.93;;
15354;SDS011;7777;52.254;9.618;2023-11-19T05:20:35;10.23;;;5.30;;
15354;SDS011;7777;52.254;9.618;2023-11-19T05:23:01;7.60;;;4.77;;
15354;SDS011;7777;52.254;9.618;2023-11-19T05:25:26;12.10;;;6.07;;
15354;SDS011;7777;52.254;9.618;2023-11-19T05:27:52;7.13;;;5.50;;
15354;SDS011;7777;52.254;9.618;2023-11-19T05:30:18;8.37;;;5.53;;
15354;SDS011;7777;52.254;9.618;2023-11-19T05:32:44;15.23;;;5.80;;
15354;SDS011;7777;52.254;9.618;2023-11-19T05:35:10;14.47;;;5.53;;
15354;SDS011;7777;52.254;9.618;2023-11-19T05:37:36;12.50;;;5.93;;
15354;SDS011;7777;52.254;9.618;2023-11-19T05:40:02;8.77;;;4.57;;
15354;SDS011;7777;52.254;9.618;2023-11-19T05:42:38;9.00;;;4.90;;
15354;SDS011;7777;52.254;9.618;2023-11-19T05:45:04;10.63;;;4.73;;
15354;SDS011;7777;52.254;9.618;2023-11-19T05:47:32;9.27;;;4.30;;
15354;SDS011;7777;52.254;9.618;2023-11-19T05:49:58;12.60;;;4.83;;
15354;SDS011;7777;52.254;9.618;2023-11-19T05:52:24;10.60;;;4.90;;
15354;SDS011;7777;52.254;9.618;2023-11-19T05:54:50;7.67;;;4.50;;
15354;SDS011;7777;52.254;9.618;2023-11-19T05:57:18;15.27;;;4.77;;
15354;SDS011;7777;52.254;9.618;2023-11-19T05:59:50;9.23;;;4.60;;
15354;SDS011;7777;52.254;9.618;2023-11-19T06:02:16;9.70;;;4.97;;
15354;SDS011;7777;52.254;9.618;2023-11-19T06:04:42;10.47;;;4.17;;
15354;SDS011;7777;52.254;9.618;2023-11-19T06:07:09;14.57;;;4.60;;
15354;SDS011;7777;52.254;9.618;2023-11-19T06:09:35;8.57;;;3.60;;
15354;SDS011;7777;52.254;9.618;2023-11-19T06:12:01;10.80;;;4.33;;
15354;SDS011;7777;52.254;9.618;2023-11-19T06:14:31;11.53;;;4.37;;
15354;SDS011;7777;52.254;9.618;2023-11-19T06:16:57;12.93;;;4.27;;
15354;SDS011;7777;52.254;9.618;2023-11-19T06:19:22;14.30;;;4.47;;
15354;SDS011;7777;52.254;9.618;2023-11-19T06:21:50;18.13;;;4.90;;
15354;SDS011;7777;52.254;9.618;2023-11-19T06:24:16;11.50;;;4.00;;
15354;SDS011;7777;52.254;9.618;2023-11-19T06:26:42;15.17;;;4.80;;
15354;SDS011;7777;52.254;9.618;2023-11-19T06:29:08;20.87;;;4.90;;
15354;SDS011;7777;52.254;9.618;2023-11-19T06:31:34;14.67;;;4.40;;
15354;SDS011;7777;52.254;9.618;2023-11-19T06:33:59;13.47;;;3.57;;
15354;SDS011;7777;52.254;9.618;2023-11-19T06:36:25;19.50;;;4.43;;
15354;SDS011;7777;52.254;9.618;2023-11-19T06:38:51;13.07;;;4.47;;
15354;SDS011;7777;52.254;9.618;2023-11-19T06:41:18;15.23;;;3.93;;
15354;SDS011;7777;52.254;9.618;2023-11-19T06:43:43;16.37;;;4.00;;
15354;SDS011;7777;52.254;9.618;2023-11-19T06:46:16;14.63;;;3.87;;
15354;SDS011;7777;52.254;9.618;2023-11-19T06:48:43;17.90;;;3.53;;
15354;SDS011;7777;52.254;9.618;2023-11-19T06:51:10;20.20;;;4.60;;
15354;SDS011;7777;52.254;9.618;2023-11-19T06:53:36;20.43;;;4.07;;
15354;SDS011;7777;52.254;9.618;2023-11-19T06:56:02;12.43;;;3.57;;
15354;SDS011;7777;52.254;9.618;2023-11-19T06:58:31;15.47;;;3.97;;
15354;SDS011;7777;52.254;9.618;2023-11-19T07:01:00;16.53;;;3.77;;
15354;SDS011;7777;52.254;9.618;2023-11-19T07:03:26;20.47;;;4.13;;
15354;SDS011;7777;52.254;9.618;2023-11-19T07:05:52;18.53;;;4.30;;
15354;SDS011;7777;52.254;9.618;2023-11-19T07:08:18;23.60;;;4.40;;
15354;SDS011;7777;52.254;9.618;2023-11-19T07:10:46;15.27;;;4.00;;
15354;SDS011;7777;52.254;9.618;2023-11-19T07:13:12;26.20;;;4.53;;
15354;SDS011;7777;52.254;9.618;2023-11-19T07:15:38;19.90;;;4.17;;
15354;SDS011;7777;52.254;9.618;2023-11-19T07:18:04;13.20;;;3.20;;
15354;SDS011;7777;52.254;9.618;2023-11-19T07:20:30;15.80;;;4.23;;
15354;SDS011;7777;52.254;9.618;2023-11-19T07:22:56;20.43;;;4.87;;
15354;SDS011;7777;52.254;9.618;2023-11-19T07:25:22;19.10;;;4.37;;
15354;SDS011;7777;52.254;9.618;2023-11-19T07:27:48;19.00;;;4.27;;
15354;SDS011;7777;52.254;9.618;2023-11-19T07:30:14;14.10;;;3.60;;
15354;SDS011;7777;52.254;9.618;2023-11-19T07:32:40;16.43;;;3.70;;
15354;SDS011;7777;52.254;9.618;2023-11-19T07:35:06;15.17;;;3.63;;
15354;SDS011;7777;52.254;9.618;2023-11-19T07:37:33;22.90;;;3.90;;
15354;SDS011;7777;52.254;9.618;2023-11-19T07:39:59;19.57;;;4.13;;
15354;SDS011;7777;52.254;9.618;2023-11-19T07:42:25;19.63;;;4.67;;
15354;SDS011;7777;52.254;9.618;2023-11-19T07:44:54;20.47;;;4.43;;
15354;SDS011;7777;52.254;9.618;2023-11-19T07:47:21;12.30;;;3.63;;
15354;SDS011;7777;52.254;9.618;2023-11-19T07:49:48;23.47;;;5.10;;
15354;SDS011;7777;52.254;9.618;2023-11-19T07:52:15;21.00;;;4.90;;
15354;SDS011;7777;52.254;9.618;2023-11-19T07:54:41;20.43;;;4.27;;
15354;SDS011;7777;52.254;9.618;2023-11-19T07:57:07;21.97;;;4.97;;
15354;SDS011;7777;52.254;9.618;2023-11-19T07:59:32;23.30;;;5.07;;
15354;SDS011;7777;52.254;9.618;2023-11-19T08:01:58;21.70;;;4.23;;
15354;SDS011;7777;52.254;9.618;2023-11-19T08:04:24;20.50;;;5.17;;
15354;SDS011;7777;52.254;9.618;2023-11-19T08:06:50;23.33;;;4.67;;
15354;SDS011;7777;52.254;9.618;2023-11-19T08:09:16;17.50;;;4.33;;
15354;SDS011;7777;52.254;9.618;2023-11-19T08:11:42;17.27;;;4.93;;
15354;SDS011;7777;52.254;9.618;2023-11-19T08:14:08;16.33;;;4.20;;
15354;SDS011;7777;52.254;9.618;2023-11-19T08:16:34;14.67;;;4.10;;
15354;SDS011;7777;52.254;9.618;2023-11-19T08:19:01;23.67;;;5.30;;
15354;SDS011;7777;52.254;9.618;2023-11-19T08:21:28;28.60;;;5.53;;
15354;SDS011;7777;52.254;9.618;2023-11-19T08:23:54;16.47;;;4.23;;
15354;SDS011;7777;52.254;9.618;2023-11-19T08:26:19;22.67;;;5.10;;
15354;SDS011;7777;52.254;9.618;2023-11-19T08:28:45;26.37;;;5.53;;
15354;SDS011;7777;52.254;9.618;2023-11-19T08:31:11;26.27;;;5.93;;
15354;SDS011;7777;52.254;9.618;2023-11-19T08:33:37;29.10;;;5.83;;
15354;SDS011;7777;52.254;9.618;2023-11-19T08:36:03;26.23;;;5.17;;
15354;SDS011;7777;52.254;9.618;2023-11-19T08:38:29;21.70;;;5.10;;
15354;SDS011;7777;52.254;9.618;2023-11-19T08:40:55;21.07;;;5.00;;
15354;SDS011;7777;52.254;9.618;2023-11-19T08:43:25;22.20;;;4.73;;
15354;SDS011;7777;52.254;9.618;2023-11-19T08:45:52;22.03;;;5.07;;
15354;SDS011;7777;52.254;9.618;2023-11-19T08:48:18;25.17;;;5.23;;
15354;SDS011;7777;52.254;9.618;2023-11-19T08:50:44;29.33;;;5.73;;
15354;SDS011;7777;52.254;9.618;2023-11-19T08:53:10;27.33;;;5.80;;
15354;SDS011;7777;52.254;9.618;2023-11-19T08:55:36;21.57;;;5.37;;
15354;SDS011;7777;52.254;9.618;2023-11-19T08:58:02;28.63;;;5.30;;
15354;SDS011;7777;52.254;9.618;2023-11-19T09:00:28;21.00;;;4.60;;
15354;SDS011;7777;52.254;9.618;2023-11-19T09:02:54;23.30;;;5.20;;
15354;SDS011;7777;52.254;9.618;2023-11-19T09:05:20;18.80;;;5.00;;
15354;SDS011;7777;52.254;9.618;2023-11-19T09:07:46;19.60;;;5.50;;
15354;SDS011;7777;52.254;9.618;2023-11-19T09:10:13;21.50;;;4.53;;
15354;SDS011;7777;52.254;9.618;2023-11-19T09:12:42;21.17;;;4.40;;
15354;SDS011;7777;52.254;9.618;2023-11-19T09:15:07;19.73;;;4.80;;
15354;SDS011;7777;52.254;9.618;2023-11-19T09:17:35;21.63;;;5.90;;
15354;SDS011;7777;52.254;9.618;2023-11-19T09:20:02;24.67;;;5.90;;
15354;SDS011;7777;52.254;9.618;2023-11-19T09:22:28;19.83;;;4.13;;
15354;SDS011;7777;52.254;9.618;2023-11-19T09:24:54;19.23;;;4.70;;
15354;SDS011;7777;52.254;9.618;2023-11-19T09:27:20;32.93;;;5.83;;
15354;SDS011;7777;52.254;9.618;2023-11-19T09:29:46;27.70;;;6.13;;
15354;SDS011;7777;52.254;9.618;2023-11-19T09:32:13;22.53;;;4.70;;
15354;SDS011;7777;52.254;9.618;2023-11-19T09:34:39;27.40;;;5.40;;
15354;SDS011;7777;52.254;9.618;2023-11-19T09:37:05;27.67;;;5.50;;
15354;SDS011;7777;52.254;9.618;2023-11-19T09:39:32;23.33;;;5.00;;
15354;SDS011;7777;52.254;9.618;2023-11-19T09:41:58;35.33;;;6.57;;
15354;SDS011;7777;52.254;9.618;2023-11-19T09:44:24;25.93;;;5.43;;
15354;SDS011;7777;52.254;9.618;2023-11-19T09:46:51;31.20;;;5.47;;
15354;SDS011;7777;52.254;9.618;2023-11-19T09:49:19;21.60;;;4.77;;
15354;SDS011;7777;52.254;9.618;2023-11-19T09:51:48;21.93;;;5.23;;
15354;SDS011;7777;52.254;9.618;2023-11-19T09:54:14;20.30;;;4.53;;
15354;SDS011;7777;52.254;9.618;2023-11-19T09:56:40;24.07;;;5.23;;
15354;SDS011;7777;52.254;9.618;2023-11-19T09:59:06;21.80;;;6.27;;
15354;SDS011;7777;52.254;9.618;2023-11-19T10:01:34;27.03;;;5.87;;
15354;SDS011;7777;52.254;9.618;2023-11-19T10:04:01;25.30;;;5.60;;
15354;SDS011;7777;52.254;9.618;2023-11-19T10:06:27;30.93;;;5.43;;
15354;SDS011;7777;52.254;9.618;2023-11-19T10:08:53;26.50;;;6.57;;
15354;SDS011;7777;52.254;9.618;2023-11-19T10:11:20;31.43;;;6.13;;
15354;SDS011;7777;52.254;9.618;2023-11-19T10:13:46;26.13;;;4.73;;
15354;SDS011;7777;52.254;9.618;2023-11-19T10:16:13;24.23;;;5.37;;
15354;SDS011;7777;52.254;9.618;2023-11-19T10:18:44;27.23;;;4.83;;
15354;SDS011;7777;52.254;9.618;2023-11-19T10:21:11;20.00;;;4.57;;
15354;SDS011;7777;52.254;9.618;2023-11-19T10:26:18;34.83;;;5.47;;
15354;SDS011;7777;52.254;9.618;2023-11-19T10:28:46;22.07;;;4.70;;
15354;SDS011;7777;52.254;9.618;2023-11-19T10:31:13;18.60;;;4.37;;
15354;SDS011;7777;52.254;9.618;2023-11-19T10:33:45;27.97;;;4.47;;
15354;SDS011;7777;52.254;9.618;2023-11-19T10:36:11;24.63;;;4.70;;
15354;SDS011;7777;52.254;9.618;2023-11-19T10:38:39;16.47;;;4.47;;
15354;SDS011;7777;52.254;9.618;2023-11-19T10:41:06;22.30;;;4.47;;
15354;SDS011;7777;52.254;9.618;2023-11-19T10:43:42;19.73;;;4.20;;
15354;SDS011;7777;52.254;9.618;2023-11-19T10:46:12;20.90;;;4.73;;
15354;SDS011;7777;52.254;9.618;2023-11-19T10:48:39;26.83;;;5.73;;
15354;SDS011;7777;52.254;9.618;2023-11-19T10:51:07;22.23;;;4.63;;
15354;SDS011;7777;52.254;9.618;2023-11-19T10:53:34;26.10;;;6.30;;
15354;SDS011;7777;52.254;9.618;2023-11-19T10:56:06;22.77;;;4.73;;
15354;SDS011;7777;52.254;9.618;2023-11-19T10:58:36;27.63;;;4.80;;
15354;SDS011;7777;52.254;9.618;2023-11-19T11:01:11;21.40;;;5.03;;
15354;SDS011;7777;52.254;9.618;2023-11-19T11:03:47;26.00;;;5.20;;
15354;SDS011;7777;52.254;9.618;2023-11-19T11:06:16;25.27;;;5.70;;
15354;SDS011;7777;52.254;9.618;2023-11-19T11:08:42;18.80;;;4.93;;
15354;SDS011;7777;52.254;9.618;2023-11-19T11:11:08;24.17;;;5.90;;
15354;SDS011;7777;52.254;9.618;2023-11-19T11:13:38;23.20;;;5.50;;
15354;SDS011;7777;52.254;9.618;2023-11-19T11:16:07;23.73;;;4.80;;
15354;SDS011;7777;52.254;9.618;2023-11-19T11:18:33;23.37;;;4.90;;
15354;SDS011;7777;52.254;9.618;2023-11-19T11:21:03;23.93;;;5.20;;
15354;SDS011;7777;52.254;9.618;2023-11-19T11:29:31;29.67;;;5.23;;
15354;SDS011;7777;52.254;9.618;2023-11-19T11:35:31;21.93;;;5.13;;
15354;SDS011;7777;52.254;9.618;2023-11-19T11:38:15;17.00;;;4.23;;
15354;SDS011;7777;52.254;9.618;2023-11-19T11:43:45;25.73;;;5.60;;
15354;SDS011;7777;52.254;9.618;2023-11-19T11:49:02;28.60;;;6.10;;
15354;SDS011;7777;52.254;9.618;2023-11-19T11:54:11;23.00;;;5.20;;
15354;SDS011;7777;52.254;9.618;2023-11-19T11:57:08;27.63;;;5.40;;
15354;SDS011;7777;52.254;9.618;2023-11-19T11:59:37;26.73;;;5.47;;
15354;SDS011;7777;52.254;9.618;2023-11-19T12:02:11;25.50;;;5.37;;
15354;SDS011;7777;52.254;9.618;2023-11-19T12:04:41;37.90;;;7.27;;
15354;SDS011;7777;52.254;9.618;2023-11-19T12:07:19;30.37;;;5.47;;
15354;SDS011;7777;52.254;9.618;2023-11-19T12:09:48;27.13;;;6.10;;
15354;SDS011;7777;52.254;9.618;2023-11-19T12:12:32;33.67;;;6.80;;
15354;SDS011;7777;52.254;9.618;2023-11-19T12:17:53;27.90;;;5.60;;
15354;SDS011;7777;52.254;9.618;2023-11-19T12:20:21;22.33;;;4.60;;
15354;SDS011;7777;52.254;9.618;2023-11-19T12:22:49;21.73;;;5.13;;
15354;SDS011;7777;52.254;9.618;2023-11-19T12:25:17;19.37;;;4.90;;
15354;SDS011;7777;52.254;9.618;2023-11-19T12:27:45;27.93;;;5.93;;
15354;SDS011;7777;52.254;9.618;2023-11-19T12:30:16;23.20;;;5.40;;
15354;SDS011;7777;52.254;9.618;2023-11-19T12:32:46;20.77;;;5.30;;
15354;SDS011;7777;52.254;9.618;2023-11-19T12:35:12;27.87;;;5.80;;
15354;SDS011;7777;52.254;9.618;2023-11-19T12:37:45;28.60;;;4.13;;
15354;SDS011;7777;52.254;9.618;2023-11-19T12:40:16;19.73;;;5.10;;
15354;SDS011;7777;52.254;9.618;2023-11-19T12:42:47;40.03;;;6.90;;
15354;SDS011;7777;52.254;9.618;2023-11-19T12:45:14;21.67;;;5.17;;
15354;SDS011;7777;52.254;9.618;2023-11-19T12:47:41;28.87;;;5.47;;
15354;SDS011;7777;52.254;9.618;2023-11-19T12:50:12;27.50;;;6.63;;
15354;SDS011;7777;52.254;9.618;2023-11-19T12:52:39;23.77;;;5.40;;
15354;SDS011;7777;52.254;9.618;2023-11-19T12:55:05;25.80;;;5.97;;
15354;SDS011;7777;52.254;9.618;2023-11-19T12:57:51;20.63;;;4.43;;
15354;SDS011;7777;52.254;9.618;2023-11-19T13:00:20;27.13;;;4.70;;
15354;SDS011;7777;52.254;9.618;2023-11-19T13:02:49;28.10;;;4.60;;
15354;SDS011;7777;52.254;9.618;2023-11-19T13:05:34;22.13;;;4.43;;
15354;SDS011;7777;52.254;9.618;2023-11-19T13:10:33;26.37;;;5.33;;
15354;SDS011;7777;52.254;9.618;2023-11-19T13:13:16;24.03;;;5.80;;
15354;SDS011;7777;52.254;9.618;2023-11-19T13:15:42;19.50;;;5.00;;
15354;SDS011;7777;52.254;9.618;2023-11-19T13:18:10;20.67;;;4.90;;
15354;SDS011;7777;52.254;9.618;2023-11-19T13:20:36;20.57;;;5.30;;
15354;SDS011;7777;52.254;9.618;2023-11-19T13:23:03;28.03;;;5.57;;
15354;SDS011;7777;52.254;9.618;2023-11-19T13:25:32;22.57;;;4.93;;
15354;SDS011;7777;52.254;9.618;2023-11-19T13:27:58;22.87;;;5.33;;
15354;SDS011;7777;52.254;9.618;2023-11-19T13:30:24;16.03;;;4.97;;
15354;SDS011;7777;52.254;9.618;2023-11-19T13:32:51;15.60;;;4.57;;
15354;SDS011;7777;52.254;9.618;2023-11-19T13:35:19;25.77;;;5.10;;
15354;SDS011;7777;52.254;9.618;2023-11-19T13:37:45;24.33;;;5.37;;
15354;SDS011;7777;52.254;9.618;2023-11-19T13:40:11;19.10;;;4.20;;
15354;SDS011;7777;52.254;9.618;2023-11-19T13:42:43;24.17;;;5.20;;
15354;SDS011;7777;52.254;9.618;2023-11-19T13:45:11;23.53;;;5.10;;
15354;SDS011;7777;52.254;9.618;2023-11-19T13:47:39;19.03;;;4.80;;
15354;SDS011;7777;52.254;9.618;2023-11-19T13:50:10;21.53;;;4.63;;
15354;SDS011;7777;52.254;9.618;2023-11-19T13:52:38;19.40;;;4.43;;
15354;SDS011;7777;52.254;9.618;2023-11-19T13:55:07;23.10;;;4.67;;
15354;SDS011;7777;52.254;9.618;2023-11-19T13:57:35;20.00;;;5.00;;
15354;SDS011;7777;52.254;9.618;2023-11-19T14:00:02;20.77;;;5.40;;
15354;SDS011;7777;52.254;9.618;2023-11-19T14:02:31;18.20;;;4.67;;
15354;SDS011;7777;52.254;9.618;2023-11-19T14:04:58;23.27;;;5.80;;
15354;SDS011;7777;52.254;9.618;2023-11-19T14:07:24;22.13;;;4.73;;
15354;SDS011;7777;52.254;9.618;2023-11-19T14:09:50;23.93;;;5.13;;
15354;SDS011;7777;52.254;9.618;2023-11-19T14:12:16;25.23;;;5.77;;
15354;SDS011;7777;52.254;9.618;2023-11-19T14:14:42;27.83;;;5.93;;
15354;SDS011;7777;52.254;9.618;2023-11-19T14:17:08;24.53;;;5.23;;
15354;SDS011;7777;52.254;9.618;2023-11-19T14:19:35;23.70;;;5.90;;
15354;SDS011;7777;52.254;9.618;2023-11-19T14:22:03;24.67;;;4.57;;
15354;SDS011;7777;52.254;9.618;2023-11-19T14:24:29;21.03;;;5.27;;
15354;SDS011;7777;52.254;9.618;2023-11-19T14:26:54;24.37;;;5.27;;
15354;SDS011;7777;52.254;9.618;2023-11-19T14:29:23;23.50;;;5.60;;
15354;SDS011;7777;52.254;9.618;2023-11-19T14:31:48;25.00;;;5.37;;
15354;SDS011;7777;52.254;9.618;2023-11-19T14:34:14;18.10;;;4.50;;
15354;SDS011;7777;52.254;9.618;2023-11-19T14:36:40;25.90;;;5.53;;
15354;SDS011;7777;52.254;9.618;2023-11-19T14:39:06;23.13;;;5.27;;
15354;SDS011;7777;52.254;9.618;2023-11-19T14:41:32;18.57;;;4.50;;
15354;SDS011;7777;52.254;9.618;2023-11-19T14:43:58;16.13;;;4.30;;
15354;SDS011;7777;52.254;9.618;2023-11-19T14:46:24;24.90;;;4.80;;
15354;SDS011;7777;52.254;9.618;2023-11-19T14:48:49;28.87;;;5.33;;
15354;SDS011;7777;52.254;9.618;2023-11-19T14:51:15;25.30;;;4.80;;
15354;SDS011;7777;52.254;9.618;2023-11-19T14:53:41;17.70;;;4.23;;
15354;SDS011;7777;52.254;9.618;2023-11-19T14:56:11;25.77;;;5.40;;
15354;SDS011;7777;52.254;9.618;2023-11-19T14:58:40;25.10;;;5.63;;
15354;SDS011;7777;52.254;9.618;2023-11-19T15:01:07;19.93;;;5.43;;
15354;SDS011;7777;52.254;9.618;2023-11-19T15:03:37;24.00;;;4.90;;
15354;SDS011;7777;52.254;9.618;2023-11-19T15:06:03;27.97;;;5.07;;
15354;SDS011;7777;52.254;9.618;2023-11-19T15:08:32;18.23;;;4.30;;
15354;SDS011;7777;52.254;9.618;2023-11-19T15:10:58;26.67;;;6.20;;
15354;SDS011;7777;52.254;9.618;2023-11-19T15:13:24;26.07;;;5.47;;
15354;SDS011;7777;52.254;9.618;2023-11-19T15:15:50;17.43;;;4.17;;
15354;SDS011;7777;52.254;9.618;2023-11-19T15:18:17;23.73;;;5.43;;
15354;SDS011;7777;52.254;9.618;2023-11-19T15:20:44;18.83;;;4.27;;